createdAt,value
2022-09-24T00:01:16.324Z,3.08
2022-09-24T00:03:45.348Z,4.32
2022-09-24T00:06:14.162Z,6.15
2022-09-24T00:08:41.943Z,5.03
2022-09-24T00:11:11.964Z,4.95
2022-09-24T00:13:39.612Z,3.83
2022-09-24T00:16:09.126Z,3.15
2022-09-24T00:18:36.066Z,3.03
2022-09-24T00:21:21.966Z,3.35
2022-09-24T00:23:52.623Z,3.35
2022-09-24T00:26:37.965Z,3.03
2022-09-24T00:29:04.958Z,3.88
2022-09-24T00:31:31.747Z,3.83
2022-09-24T00:33:58.639Z,2.60
2022-09-24T00:36:24.994Z,3.50
2022-09-24T00:38:55.972Z,5.25
2022-09-24T00:41:29.159Z,3.70
2022-09-24T00:43:55.640Z,4.65
2022-09-24T00:46:32.310Z,4.10
2022-09-24T00:49:03.158Z,3.38
2022-09-24T00:51:30.563Z,3.55
2022-09-24T00:54:00.962Z,4.50
2022-09-24T00:56:29.003Z,4.63
2022-09-24T00:58:57.007Z,3.63
2022-09-24T01:01:24.910Z,4.97
2022-09-24T01:03:53.406Z,5.25
2022-09-24T01:06:19.719Z,4.47
2022-09-24T01:08:46.173Z,4.03
2022-09-24T01:11:42.258Z,8.38
2022-09-24T01:14:19.757Z,3.70
2022-09-24T01:17:12.795Z,5.13
2022-09-24T01:19:54.223Z,3.60
2022-09-24T01:22:26.590Z,3.70
2022-09-24T01:25:02.037Z,3.53
2022-09-24T01:27:46.968Z,4.40
2022-09-24T01:30:15.199Z,3.50
2022-09-24T01:32:52.648Z,4.32
2022-09-24T01:35:23.816Z,4.05
2022-09-24T01:38:00.058Z,3.60
2022-09-24T01:40:27.777Z,2.92
2022-09-24T01:42:57.237Z,3.72
2022-09-24T01:45:24.554Z,4.68
2022-09-24T01:47:50.945Z,4.75
2022-09-24T01:50:18.645Z,3.92
2022-09-24T01:52:58.362Z,3.75
2022-09-24T01:55:27.269Z,3.75
2022-09-24T01:58:06.858Z,3.97
2022-09-24T02:00:33.681Z,4.22
2022-09-24T02:03:11.610Z,3.55
2022-09-24T02:05:54.730Z,3.53
2022-09-24T02:08:23.545Z,4.57
2022-09-24T02:11:11.320Z,6.78
2022-09-24T02:14:00.724Z,4.78
2022-09-24T02:16:29.819Z,4.88
2022-09-24T02:18:58.510Z,3.90
2022-09-24T02:21:25.833Z,4.07
2022-09-24T02:23:58.137Z,4.35
2022-09-24T02:26:24.456Z,4.50
2022-09-24T02:28:50.795Z,5.38
2022-09-24T02:31:29.316Z,4.30
2022-09-24T02:34:16.164Z,5.00
2022-09-24T02:36:43.219Z,4.55
2022-09-24T02:39:09.517Z,4.95
2022-09-24T02:41:36.048Z,4.60
2022-09-24T02:44:02.663Z,4.47
2022-09-24T02:46:29.055Z,3.55
2022-09-24T02:48:55.418Z,3.67
2022-09-24T02:51:21.892Z,4.97
2022-09-24T02:53:48.244Z,7.97
2022-09-24T02:56:14.595Z,7.43
2022-09-24T02:58:40.915Z,5.40
2022-09-24T03:01:07.414Z,5.78
2022-09-24T03:03:33.727Z,4.22
2022-09-24T03:06:00.237Z,5.05
2022-09-24T03:08:27.033Z,5.60
2022-09-24T03:10:56.175Z,9.32
2022-09-24T03:13:22.680Z,6.32
2022-09-24T03:15:49.042Z,5.25
2022-09-24T03:18:15.447Z,4.57
2022-09-24T03:20:41.804Z,3.83
2022-09-24T03:23:08.311Z,4.70
2022-09-24T03:25:34.649Z,5.28
2022-09-24T03:28:01.268Z,8.70
2022-09-24T03:30:46.165Z,5.72
2022-09-24T03:33:12.542Z,4.40
2022-09-24T03:35:39.044Z,5.28
2022-09-24T03:38:05.374Z,5.18
2022-09-24T03:40:31.834Z,5.18
2022-09-24T03:42:58.363Z,6.45
2022-09-24T03:45:25.715Z,5.53
2022-09-24T03:47:52.063Z,4.53
2022-09-24T03:50:18.400Z,5.28
2022-09-24T03:52:44.705Z,5.13
2022-09-24T03:55:11.005Z,4.60
2022-09-24T03:57:37.340Z,4.15
2022-09-24T04:00:04.293Z,4.60
2022-09-24T04:02:31.074Z,4.72
2022-09-24T04:04:57.416Z,4.82
2022-09-24T04:07:24.063Z,6.35
2022-09-24T04:09:50.684Z,4.57
2022-09-24T04:12:16.998Z,7.00
2022-09-24T04:14:43.399Z,4.65
2022-09-24T04:17:10.262Z,4.72
2022-09-24T04:19:36.566Z,7.45
2022-09-24T04:22:02.872Z,4.30
2022-09-24T04:24:29.356Z,4.20
2022-09-24T04:26:55.710Z,5.70
2022-09-24T04:29:22.220Z,4.40
2022-09-24T04:31:48.747Z,5.30
2022-09-24T04:34:15.090Z,5.57
2022-09-24T04:36:41.591Z,6.03
2022-09-24T04:39:07.941Z,4.47
2022-09-24T04:41:34.986Z,4.30
2022-09-24T04:44:01.535Z,4.88
2022-09-24T04:46:27.912Z,4.30
2022-09-24T04:48:54.217Z,4.72
2022-09-24T04:51:21.198Z,5.07
2022-09-24T04:53:50.410Z,8.07
2022-09-24T04:56:16.963Z,4.57
2022-09-24T04:58:43.564Z,3.88
2022-09-24T05:01:10.583Z,5.07
2022-09-24T05:03:36.883Z,4.00
2022-09-24T05:06:03.259Z,4.28
2022-09-24T05:08:29.566Z,4.85
2022-09-24T05:10:56.366Z,4.72
2022-09-24T05:13:22.690Z,4.18
2022-09-24T05:15:49.053Z,3.80
2022-09-24T05:18:15.442Z,5.40
2022-09-24T05:20:41.916Z,4.35
2022-09-24T05:23:08.287Z,4.07
2022-09-24T05:25:54.603Z,4.47
2022-09-24T05:28:21.496Z,5.13
2022-09-24T05:30:47.798Z,5.28
2022-09-24T05:33:14.156Z,3.72
2022-09-24T05:35:40.574Z,5.00
2022-09-24T05:38:07.042Z,3.95
2022-09-24T05:40:48.350Z,4.15
2022-09-24T05:43:15.061Z,3.75
2022-09-24T05:45:44.450Z,4.05
2022-09-24T05:48:11.250Z,3.67
2022-09-24T05:50:37.707Z,3.72
2022-09-24T05:53:05.561Z,6.97
2022-09-24T05:55:32.728Z,4.07
2022-09-24T05:58:07.101Z,4.38
2022-09-24T06:03:06.520Z,5.00
2022-09-24T06:05:34.172Z,4.30
2022-09-24T06:08:00.890Z,3.90
2022-09-24T06:10:27.257Z,3.63
2022-09-24T06:12:53.778Z,4.00
2022-09-24T06:15:20.824Z,4.30
2022-09-24T06:17:47.334Z,4.78
2022-09-24T06:20:13.955Z,4.35
2022-09-24T06:22:40.625Z,5.07
2022-09-24T06:25:08.094Z,4.68
2022-09-24T06:27:34.410Z,5.15
2022-09-24T06:30:00.725Z,6.97
2022-09-24T06:32:27.054Z,5.68
2022-09-24T06:34:56.906Z,7.13
2022-09-24T06:37:25.395Z,6.43
2022-09-24T06:39:51.727Z,6.50
2022-09-24T06:42:18.063Z,5.78
2022-09-24T06:44:44.385Z,5.82
2022-09-24T06:47:12.479Z,5.65
2022-09-24T06:49:38.802Z,6.18
2022-09-24T06:52:05.163Z,6.53
2022-09-24T06:54:31.519Z,6.45
2022-09-24T06:56:57.832Z,5.88
2022-09-24T06:59:24.150Z,5.80
2022-09-24T07:01:50.717Z,9.30
2022-09-24T07:04:17.077Z,7.97
2022-09-24T07:07:01.992Z,9.38
2022-09-24T07:09:28.371Z,10.65
2022-09-24T07:11:56.264Z,11.40
2022-09-24T07:14:22.765Z,9.73
2022-09-24T07:16:49.234Z,10.57
2022-09-24T07:19:15.534Z,10.77
2022-09-24T07:21:41.833Z,11.32
2022-09-24T07:24:08.171Z,12.30
2022-09-24T07:26:34.596Z,10.60
2022-09-24T07:29:01.088Z,10.20
2022-09-24T07:31:27.482Z,11.10
2022-09-24T07:33:53.878Z,9.63
2022-09-24T07:36:20.208Z,10.27
2022-09-24T07:38:46.535Z,11.75
2022-09-24T07:41:12.996Z,12.05
2022-09-24T07:43:39.361Z,11.93
2022-09-24T07:46:06.504Z,11.20
2022-09-24T07:48:32.883Z,10.95
2022-09-24T07:50:59.185Z,12.23
2022-09-24T07:53:25.527Z,13.25
2022-09-24T07:55:52.540Z,12.07
2022-09-24T07:58:19.138Z,12.27
2022-09-24T08:00:45.444Z,10.30
2022-09-24T08:03:11.820Z,10.50
2022-09-24T08:05:45.651Z,13.95
2022-09-24T08:08:12.251Z,10.20
2022-09-24T08:10:38.549Z,11.05
2022-09-24T08:13:04.898Z,11.40
2022-09-24T08:15:31.231Z,10.13
2022-09-24T08:18:04.286Z,10.98
2022-09-24T08:20:32.184Z,11.50
2022-09-24T08:23:02.213Z,13.40
2022-09-24T08:25:28.845Z,9.18
2022-09-24T08:27:55.157Z,10.23
2022-09-24T08:30:21.539Z,8.98
2022-09-24T08:32:48.266Z,10.45
2022-09-24T08:35:15.811Z,10.52
2022-09-24T08:37:42.166Z,12.68
2022-09-24T08:40:18.516Z,13.50
2022-09-24T08:42:51.498Z,9.38
2022-09-24T08:45:36.885Z,11.10
2022-09-24T08:48:16.055Z,15.05
2022-09-24T08:50:52.236Z,9.48
2022-09-24T08:53:46.316Z,13.60
2022-09-24T08:56:12.635Z,11.20
2022-09-24T08:59:15.595Z,10.60
2022-09-24T09:01:48.062Z,9.98
2022-09-24T09:04:30.600Z,10.45
2022-09-24T09:07:21.637Z,10.63
2022-09-24T09:10:10.127Z,9.73
2022-09-24T09:12:54.231Z,10.70
2022-09-24T09:15:26.199Z,11.25
2022-09-24T09:17:55.065Z,11.48
2022-09-24T09:20:26.224Z,9.15
2022-09-24T09:22:55.656Z,10.73
2022-09-24T09:25:28.334Z,8.75
2022-09-24T09:28:01.620Z,9.15
2022-09-24T09:30:34.561Z,8.98
2022-09-24T09:33:14.754Z,9.27
2022-09-24T09:35:49.741Z,8.55
2022-09-24T09:38:18.922Z,7.78
2022-09-24T09:41:05.564Z,9.77
2022-09-24T09:43:32.495Z,9.40
2022-09-24T09:46:15.134Z,8.65
2022-09-24T09:48:47.258Z,9.10
2022-09-24T09:51:22.696Z,11.40
2022-09-24T09:53:57.637Z,10.80
2022-09-24T09:56:42.049Z,8.82
2022-09-24T09:59:29.807Z,8.93
2022-09-24T10:01:57.386Z,10.48
2022-09-24T10:04:39.583Z,9.68
2022-09-24T10:07:14.545Z,11.73
2022-09-24T10:09:42.507Z,11.52
2022-09-24T10:12:19.734Z,10.82
2022-09-24T10:14:57.045Z,9.05
2022-09-24T10:17:26.726Z,9.90
2022-09-24T10:19:53.168Z,10.02
2022-09-24T10:22:23.317Z,11.10
2022-09-24T10:24:50.036Z,9.68
2022-09-24T10:27:24.611Z,10.20
2022-09-24T10:30:12.178Z,7.82
2022-09-24T10:32:39.230Z,9.32
2022-09-24T10:35:21.546Z,9.10
2022-09-24T10:37:55.079Z,11.40
2022-09-24T10:40:28.349Z,10.20
2022-09-24T10:42:57.146Z,15.18
2022-09-24T10:45:32.193Z,9.65
2022-09-24T10:48:12.474Z,11.15
2022-09-24T10:50:45.555Z,9.63
2022-09-24T10:53:20.678Z,8.70
2022-09-24T10:56:03.733Z,12.68
2022-09-24T10:58:53.103Z,9.05
2022-09-24T11:01:26.167Z,8.68
2022-09-24T11:04:17.981Z,10.55
2022-09-24T11:07:15.503Z,11.70
2022-09-24T11:09:48.085Z,9.05
2022-09-24T11:12:30.206Z,7.57
2022-09-24T11:15:22.431Z,7.65
2022-09-24T11:18:04.147Z,8.70
2022-09-24T11:20:39.300Z,8.13
2022-09-24T11:23:22.425Z,6.20
2022-09-24T11:26:26.235Z,9.20
2022-09-24T11:29:07.590Z,5.88
2022-09-24T11:31:49.620Z,7.20
2022-09-24T11:34:22.840Z,6.40
2022-09-24T11:37:11.193Z,9.65
2022-09-24T11:39:51.891Z,12.00
2022-09-24T11:42:45.973Z,14.52
2022-09-24T11:45:27.085Z,9.63
2022-09-24T11:47:59.193Z,11.05
2022-09-24T11:50:58.942Z,9.30
2022-09-24T11:53:54.622Z,10.13
2022-09-24T11:56:52.094Z,9.60
2022-09-24T11:59:36.826Z,11.35
2022-09-24T12:02:15.331Z,10.45
2022-09-24T12:04:52.028Z,13.88
2022-09-24T12:07:30.984Z,8.90
2022-09-24T12:10:01.011Z,10.50
2022-09-24T12:12:47.461Z,9.05
2022-09-24T12:15:23.876Z,8.65
2022-09-24T12:17:54.706Z,10.80
2022-09-24T12:20:24.636Z,6.55
2022-09-24T12:22:55.815Z,5.93
2022-09-24T12:25:22.153Z,10.98
2022-09-24T12:27:48.624Z,8.05
2022-09-24T12:30:43.146Z,6.57
2022-09-24T12:33:18.623Z,7.10
2022-09-24T12:36:09.029Z,7.60
2022-09-24T12:38:57.118Z,6.07
2022-09-24T12:41:26.077Z,7.10
2022-09-24T12:44:12.408Z,10.63
2022-09-24T12:46:47.989Z,15.48
2022-09-24T12:49:19.540Z,8.57
2022-09-24T12:51:46.123Z,9.25
2022-09-24T12:54:28.523Z,7.03
2022-09-24T12:57:08.140Z,8.88
2022-09-24T12:59:34.676Z,5.95
2022-09-24T13:02:15.537Z,10.35
2022-09-24T13:04:45.811Z,5.95
2022-09-24T13:07:37.094Z,5.63
2022-09-24T13:10:15.691Z,6.00
2022-09-24T13:12:42.629Z,5.32
2022-09-24T13:15:35.157Z,5.13
2022-09-24T13:18:04.195Z,4.55
2022-09-24T13:20:31.680Z,6.88
2022-09-24T13:23:00.313Z,7.15
2022-09-24T13:25:27.386Z,5.18
2022-09-24T13:28:02.721Z,4.28
2022-09-24T13:30:29.090Z,7.82
2022-09-24T13:33:16.706Z,5.65
2022-09-24T13:35:58.413Z,4.72
2022-09-24T13:38:28.555Z,5.53
2022-09-24T13:41:03.742Z,5.05
2022-09-24T13:43:40.898Z,4.63
2022-09-24T13:46:13.608Z,4.93
2022-09-24T13:48:59.950Z,4.07
2022-09-24T13:51:29.200Z,5.88
2022-09-24T13:54:13.197Z,5.95
2022-09-24T13:56:39.528Z,6.15
2022-09-24T13:59:11.652Z,5.25
2022-09-24T14:01:40.594Z,5.88
2022-09-24T14:04:18.452Z,4.32
2022-09-24T14:06:47.992Z,4.15
2022-09-24T14:09:23.289Z,4.63
2022-09-24T14:11:54.282Z,3.20
2022-09-24T14:14:24.596Z,6.30
2022-09-24T14:16:54.828Z,2.72
2022-09-24T14:19:22.799Z,3.63
2022-09-24T14:21:52.482Z,7.07
2022-09-24T14:24:23.026Z,4.63
2022-09-24T14:27:07.398Z,4.10
2022-09-24T14:29:44.056Z,3.90
2022-09-24T14:32:23.709Z,3.17
2022-09-24T14:34:56.106Z,4.65
2022-09-24T14:37:34.194Z,5.18
2022-09-24T14:40:05.030Z,6.63
2022-09-24T14:42:36.333Z,6.78
2022-09-24T14:45:04.323Z,4.55
2022-09-24T14:47:33.850Z,3.45
2022-09-24T14:50:00.899Z,6.00
2022-09-24T14:52:38.700Z,3.88
2022-09-24T14:55:13.392Z,5.97
2022-09-24T14:57:43.327Z,4.68
2022-09-24T15:00:23.535Z,3.15
2022-09-24T15:02:54.468Z,3.70
2022-09-24T15:05:25.206Z,3.85
2022-09-24T15:07:52.128Z,2.53
2022-09-24T15:10:23.963Z,5.82
2022-09-24T15:12:52.207Z,2.80
2022-09-24T15:15:19.398Z,2.95
2022-09-24T15:17:47.404Z,5.47
2022-09-24T15:20:14.228Z,4.05
2022-09-24T15:22:40.541Z,3.50
2022-09-24T15:25:07.465Z,5.05
2022-09-24T15:27:37.883Z,4.03
2022-09-24T15:30:07.764Z,4.38
2022-09-24T15:32:37.248Z,3.28
2022-09-24T15:35:09.343Z,3.58
2022-09-24T15:37:38.814Z,6.88
2022-09-24T15:40:30.652Z,5.57
2022-09-24T15:42:57.052Z,5.22
2022-09-24T15:45:24.398Z,6.10
2022-09-24T15:47:51.891Z,6.22
2022-09-24T15:50:19.403Z,6.63
2022-09-24T15:52:57.641Z,5.63
2022-09-24T15:55:24.078Z,7.10
2022-09-24T15:57:50.447Z,5.53
2022-09-24T16:00:19.274Z,8.30
2022-09-24T16:02:49.523Z,5.22
2022-09-24T16:05:16.844Z,6.25
2022-09-24T16:07:43.151Z,5.93
2022-09-24T16:10:10.210Z,5.25
2022-09-24T16:12:36.800Z,7.93
2022-09-24T16:15:04.079Z,7.28
2022-09-24T16:17:30.420Z,6.30
2022-09-24T16:19:56.773Z,6.05
2022-09-24T16:22:23.102Z,7.97
2022-09-24T16:24:49.454Z,7.05
2022-09-24T16:27:16.078Z,6.20
2022-09-24T16:29:42.393Z,7.47
2022-09-24T16:32:08.721Z,6.20
2022-09-24T16:34:35.026Z,6.22
2022-09-24T16:37:01.506Z,7.78
2022-09-24T16:39:27.863Z,15.60
2022-09-24T16:41:54.387Z,10.13
2022-09-24T16:44:20.746Z,6.95
2022-09-24T16:46:47.101Z,8.45
2022-09-24T16:49:13.530Z,10.52
2022-09-24T16:51:40.191Z,7.55
2022-09-24T16:54:06.595Z,8.73
2022-09-24T16:56:33.007Z,6.75
2022-09-24T16:58:59.586Z,4.95
2022-09-24T17:01:26.153Z,6.43
2022-09-24T17:03:57.309Z,5.63
2022-09-24T17:06:28.993Z,4.47
2022-09-24T17:09:14.296Z,3.90
2022-09-24T17:11:41.101Z,5.70
2022-09-24T17:14:10.372Z,5.40
2022-09-24T17:16:36.695Z,3.63
2022-09-24T17:19:03.160Z,5.70
2022-09-24T17:21:29.567Z,7.38
2022-09-24T17:23:55.934Z,4.65
2022-09-24T17:26:23.015Z,7.25
2022-09-24T17:28:52.209Z,5.57
2022-09-24T17:31:21.444Z,4.28
2022-09-24T17:33:48.954Z,5.88
2022-09-24T17:36:15.749Z,5.25
2022-09-24T17:38:42.357Z,4.43
2022-09-24T17:41:11.251Z,3.90
2022-09-24T17:43:38.203Z,6.70
2022-09-24T17:46:13.792Z,6.00
2022-09-24T17:48:45.633Z,7.28
2022-09-24T17:51:19.090Z,3.80
2022-09-24T17:53:46.694Z,4.93
2022-09-24T17:56:14.366Z,5.40
2022-09-24T17:58:42.677Z,7.80
2022-09-24T18:01:14.491Z,7.80
2022-09-24T18:03:41.128Z,7.07
2022-09-24T18:06:10.141Z,6.00
2022-09-24T18:08:40.792Z,6.30
2022-09-24T18:11:18.691Z,6.00
2022-09-24T18:13:45.492Z,5.60
2022-09-24T18:16:16.342Z,13.00
2022-09-24T18:18:43.842Z,6.88
2022-09-24T18:21:12.303Z,5.97
2022-09-24T18:23:39.657Z,6.88
2022-09-24T18:26:11.789Z,6.18
2022-09-24T18:28:45.207Z,6.20
2022-09-24T18:31:11.611Z,5.90
2022-09-24T18:33:39.568Z,7.10
2022-09-24T18:36:11.286Z,7.97
2022-09-24T18:38:37.867Z,7.50
2022-09-24T18:41:09.665Z,5.75
2022-09-24T18:43:36.100Z,7.32
2022-09-24T18:46:07.436Z,6.95
2022-09-24T18:48:34.063Z,5.60
2022-09-24T18:51:00.415Z,6.82
2022-09-24T18:53:27.420Z,6.35
2022-09-24T18:55:53.786Z,6.68
2022-09-24T18:58:20.113Z,6.35
2022-09-24T19:00:54.016Z,4.80
2022-09-24T19:03:25.182Z,5.45
2022-09-24T19:05:52.959Z,5.15
2022-09-24T19:08:20.502Z,3.72
2022-09-24T19:10:47.972Z,5.30
2022-09-24T19:13:14.879Z,4.07
2022-09-24T19:15:42.200Z,4.85
2022-09-24T19:18:15.975Z,6.18
2022-09-24T19:20:53.536Z,3.67
2022-09-24T19:23:19.851Z,5.07
2022-09-24T19:25:46.166Z,5.57
2022-09-24T19:28:12.777Z,4.25
2022-09-24T19:30:41.397Z,4.60
2022-09-24T19:33:16.056Z,4.93
2022-09-24T19:36:03.539Z,4.50
2022-09-24T19:38:37.494Z,4.45
2022-09-24T19:41:26.219Z,4.93
2022-09-24T19:43:54.040Z,5.85
2022-09-24T19:46:24.000Z,4.35
2022-09-24T19:48:50.547Z,4.70
2022-09-24T19:51:18.690Z,6.18
2022-09-24T19:53:49.756Z,6.40
2022-09-24T19:56:16.353Z,6.85
2022-09-24T19:58:46.486Z,5.05
2022-09-24T20:01:17.104Z,5.07
2022-09-24T20:03:45.476Z,6.55
2022-09-24T20:06:14.151Z,7.32
2022-09-24T20:08:40.722Z,6.35
2022-09-24T20:11:09.123Z,6.60
2022-09-24T20:13:35.683Z,5.65
2022-09-24T20:16:03.509Z,4.32
2022-09-24T20:18:31.138Z,5.15
2022-09-24T20:21:05.022Z,4.75
2022-09-24T20:23:31.668Z,5.78
2022-09-24T20:26:16.703Z,3.60
2022-09-24T20:28:43.280Z,6.50
2022-09-24T20:31:15.969Z,4.28
2022-09-24T20:33:42.974Z,3.85
2022-09-24T20:36:15.783Z,3.35
2022-09-24T20:41:14.088Z,5.28
2022-09-24T20:43:40.564Z,9.02
2022-09-24T20:46:13.945Z,3.85
2022-09-24T20:48:40.466Z,4.67
2022-09-24T20:51:10.740Z,5.45
2022-09-24T20:53:37.304Z,4.40
2022-09-24T20:56:05.771Z,3.85
2022-09-24T20:58:33.710Z,4.50
2022-09-24T21:01:00.182Z,4.03
2022-09-24T21:03:43.477Z,4.22
2022-09-24T21:06:11.691Z,5.30
2022-09-24T21:08:40.259Z,4.25
2022-09-24T21:11:16.026Z,4.63
2022-09-24T21:13:44.670Z,4.53
2022-09-24T21:16:11.961Z,5.85
2022-09-24T21:18:40.847Z,5.25
2022-09-24T21:21:12.257Z,4.50
2022-09-24T21:23:39.904Z,4.65
2022-09-24T21:26:20.098Z,5.20
2022-09-24T21:28:48.485Z,5.05
2022-09-24T21:31:20.885Z,5.32
2022-09-24T21:33:48.998Z,6.30
2022-09-24T21:36:21.317Z,4.68
2022-09-24T21:38:54.381Z,4.40
2022-09-24T21:41:22.991Z,5.03
2022-09-24T21:43:49.292Z,4.18
2022-09-24T21:46:15.839Z,6.13
2022-09-24T21:48:42.216Z,4.90
2022-09-24T21:51:10.775Z,5.53
2022-09-24T21:53:37.835Z,5.30
2022-09-24T21:56:05.315Z,4.97
2022-09-24T21:58:31.808Z,4.43
2022-09-24T22:01:05.015Z,4.38
2022-09-24T22:03:31.801Z,4.72
2022-09-24T22:05:59.613Z,7.25
2022-09-24T22:08:29.822Z,6.97
2022-09-24T22:11:09.416Z,6.10
2022-09-24T22:13:39.325Z,5.65
2022-09-24T22:16:07.514Z,4.88
2022-09-24T22:18:34.901Z,8.02
2022-09-24T22:21:06.911Z,5.60
2022-09-24T22:23:33.231Z,5.15
2022-09-24T22:25:59.573Z,6.65
2022-09-24T22:28:27.240Z,5.18
2022-09-24T22:30:56.509Z,5.15
2022-09-24T22:33:42.347Z,5.13
2022-09-24T22:36:08.974Z,5.43
2022-09-24T22:38:35.987Z,4.43
2022-09-24T22:41:03.744Z,5.13
2022-09-24T22:43:30.699Z,4.72
2022-09-24T22:46:01.735Z,5.35
2022-09-24T22:48:28.502Z,4.95
2022-09-24T22:50:55.141Z,5.25
2022-09-24T22:53:21.725Z,4.70
2022-09-24T22:55:52.495Z,6.00
2022-09-24T22:58:19.296Z,4.63
2022-09-24T23:00:45.665Z,6.60
2022-09-24T23:03:11.969Z,4.57
2022-09-24T23:05:39.028Z,4.55
2022-09-24T23:08:05.355Z,4.70
2022-09-24T23:10:31.692Z,3.80
2022-09-24T23:12:58.006Z,3.55
2022-09-24T23:15:25.390Z,4.03
2022-09-24T23:17:52.035Z,3.67
2022-09-24T23:20:18.515Z,4.00
2022-09-24T23:22:44.836Z,3.83
2022-09-24T23:25:11.291Z,4.25
2022-09-24T23:27:37.749Z,3.63
2022-09-24T23:30:04.849Z,4.20
2022-09-24T23:32:32.075Z,3.78
2022-09-24T23:34:58.566Z,3.90
2022-09-24T23:37:25.077Z,5.10
2022-09-24T23:39:51.389Z,3.70
2022-09-24T23:42:17.738Z,3.63
2022-09-24T23:44:45.248Z,3.75
2022-09-24T23:47:11.562Z,3.30
2022-09-24T23:49:37.883Z,3.50
2022-09-24T23:52:04.235Z,3.78
2022-09-24T23:54:30.577Z,3.30
2022-09-24T23:56:56.926Z,5.75
2022-09-24T23:59:23.242Z,4.03
